sensor_id;sensor_type;location;lat;lon;timestamp;temperature;humidity
3842;DHT22;1936;47.074;15.336;2023-07-29T00:01:03;19.90;94.40
3842;DHT22;1936;47.074;15.336;2023-07-29T00:03:06;19.90;94.40
3842;DHT22;1936;47.074;15.336;2023-07-29T00:05:12;19.80;94.50
3842;DHT22;1936;47.074;15.336;2023-07-29T00:07:15;19.90;94.20
3842;DHT22;1936;47.074;15.336;2023-07-29T00:09:19;19.80;94.30
3842;DHT22;1936;47.074;15.336;2023-07-29T00:11:22;19.80;94.40
3842;DHT22;1936;47.074;15.336;2023-07-29T00:13:26;19.90;94.00
3842;DHT22;1936;47.074;15.336;2023-07-29T00:15:29;19.80;94.10
3842;DHT22;1936;47.074;15.336;2023-07-29T00:17:33;19.70;94.50
3842;DHT22;1936;47.074;15.336;2023-07-29T00:19:36;19.70;94.40
3842;DHT22;1936;47.074;15.336;2023-07-29T00:21:41;19.70;94.50
3842;DHT22;1936;47.074;15.336;2023-07-29T00:23:45;19.50;94.80
3842;DHT22;1936;47.074;15.336;2023-07-29T00:25:49;19.50;94.90
3842;DHT22;1936;47.074;15.336;2023-07-29T00:27:55;19.40;95.00
3842;DHT22;1936;47.074;15.336;2023-07-29T00:30:00;19.50;94.80
3842;DHT22;1936;47.074;15.336;2023-07-29T00:32:04;19.50;94.90
3842;DHT22;1936;47.074;15.336;2023-07-29T00:34:08;19.50;94.60
3842;DHT22;1936;47.074;15.336;2023-07-29T00:36:11;19.40;94.70
3842;DHT22;1936;47.074;15.336;2023-07-29T00:38:16;19.50;94.50
3842;DHT22;1936;47.074;15.336;2023-07-29T00:40:21;19.30;94.80
3842;DHT22;1936;47.074;15.336;2023-07-29T00:42:25;19.30;95.00
3842;DHT22;1936;47.074;15.336;2023-07-29T00:44:28;19.30;94.90
3842;DHT22;1936;47.074;15.336;2023-07-29T00:46:34;19.40;94.70
3842;DHT22;1936;47.074;15.336;2023-07-29T00:48:39;19.30;94.70
3842;DHT22;1936;47.074;15.336;2023-07-29T00:50:43;19.40;94.60
3842;DHT22;1936;47.074;15.336;2023-07-29T00:52:48;19.30;94.30
3842;DHT22;1936;47.074;15.336;2023-07-29T00:54:53;19.20;94.70
3842;DHT22;1936;47.074;15.336;2023-07-29T00:56:56;19.20;94.60
3842;DHT22;1936;47.074;15.336;2023-07-29T00:59:00;19.20;94.20
3842;DHT22;1936;47.074;15.336;2023-07-29T01:01:04;19.20;94.30
3842;DHT22;1936;47.074;15.336;2023-07-29T01:03:08;19.30;94.00
3842;DHT22;1936;47.074;15.336;2023-07-29T01:05:14;19.20;93.90
3842;DHT22;1936;47.074;15.336;2023-07-29T01:07:23;19.20;93.90
3842;DHT22;1936;47.074;15.336;2023-07-29T01:09:33;19.20;93.80
3842;DHT22;1936;47.074;15.336;2023-07-29T01:11:48;19.20;93.80
3842;DHT22;1936;47.074;15.336;2023-07-29T01:14:01;19.10;93.80
3842;DHT22;1936;47.074;15.336;2023-07-29T01:16:11;19.00;94.20
3842;DHT22;1936;47.074;15.336;2023-07-29T01:18:21;19.00;94.00
3842;DHT22;1936;47.074;15.336;2023-07-29T01:20:26;19.00;93.80
3842;DHT22;1936;47.074;15.336;2023-07-29T01:22:29;18.80;93.70
3842;DHT22;1936;47.074;15.336;2023-07-29T01:24:35;18.80;93.90
3842;DHT22;1936;47.074;15.336;2023-07-29T01:26:38;18.90;93.70
3842;DHT22;1936;47.074;15.336;2023-07-29T01:28:41;18.60;94.00
3842;DHT22;1936;47.074;15.336;2023-07-29T01:30:45;18.60;94.30
3842;DHT22;1936;47.074;15.336;2023-07-29T01:32:55;18.70;94.10
3842;DHT22;1936;47.074;15.336;2023-07-29T01:35:10;18.70;94.10
3842;DHT22;1936;47.074;15.336;2023-07-29T01:37:19;18.50;94.40
3842;DHT22;1936;47.074;15.336;2023-07-29T01:39:28;18.50;94.70
3842;DHT22;1936;47.074;15.336;2023-07-29T01:41:34;18.40;95.00
3842;DHT22;1936;47.074;15.336;2023-07-29T01:43:38;18.40;94.80
3842;DHT22;1936;47.074;15.336;2023-07-29T01:45:46;18.50;94.50
3842;DHT22;1936;47.074;15.336;2023-07-29T01:47:50;18.40;94.80
3842;DHT22;1936;47.074;15.336;2023-07-29T01:49:53;18.30;94.50
3842;DHT22;1936;47.074;15.336;2023-07-29T01:51:56;18.30;95.30
3842;DHT22;1936;47.074;15.336;2023-07-29T01:54:00;18.20;95.70
3842;DHT22;1936;47.074;15.336;2023-07-29T01:56:03;18.30;95.90
3842;DHT22;1936;47.074;15.336;2023-07-29T01:58:08;18.30;96.00
3842;DHT22;1936;47.074;15.336;2023-07-29T02:00:12;18.30;96.20
3842;DHT22;1936;47.074;15.336;2023-07-29T02:02:16;18.40;95.30
3842;DHT22;1936;47.074;15.336;2023-07-29T02:04:19;18.40;94.90
3842;DHT22;1936;47.074;15.336;2023-07-29T02:06:23;18.20;95.10
3842;DHT22;1936;47.074;15.336;2023-07-29T02:08:27;18.20;95.10
3842;DHT22;1936;47.074;15.336;2023-07-29T02:10:30;18.10;95.10
3842;DHT22;1936;47.074;15.336;2023-07-29T02:12:34;18.00;95.70
3842;DHT22;1936;47.074;15.336;2023-07-29T02:14:37;18.00;95.90
3842;DHT22;1936;47.074;15.336;2023-07-29T02:16:41;18.10;95.60
3842;DHT22;1936;47.074;15.336;2023-07-29T02:18:44;18.30;95.10
3842;DHT22;1936;47.074;15.336;2023-07-29T02:20:48;18.20;95.10
3842;DHT22;1936;47.074;15.336;2023-07-29T02:22:52;18.20;95.10
3842;DHT22;1936;47.074;15.336;2023-07-29T02:24:56;18.10;95.40
3842;DHT22;1936;47.074;15.336;2023-07-29T02:26:59;18.10;95.10
3842;DHT22;1936;47.074;15.336;2023-07-29T02:29:03;18.10;95.30
3842;DHT22;1936;47.074;15.336;2023-07-29T02:31:15;17.90;95.30
3842;DHT22;1936;47.074;15.336;2023-07-29T02:33:19;17.90;95.70
3842;DHT22;1936;47.074;15.336;2023-07-29T02:35:22;17.90;95.50
3842;DHT22;1936;47.074;15.336;2023-07-29T02:37:26;18.00;95.20
3842;DHT22;1936;47.074;15.336;2023-07-29T02:39:29;17.90;95.10
3842;DHT22;1936;47.074;15.336;2023-07-29T02:41:33;18.00;95.10
3842;DHT22;1936;47.074;15.336;2023-07-29T02:43:36;18.00;95.00
3842;DHT22;1936;47.074;15.336;2023-07-29T02:45:39;17.90;95.60
3842;DHT22;1936;47.074;15.336;2023-07-29T02:47:44;18.00;95.70
3842;DHT22;1936;47.074;15.336;2023-07-29T02:49:48;18.10;95.50
3842;DHT22;1936;47.074;15.336;2023-07-29T02:51:52;18.10;95.30
3842;DHT22;1936;47.074;15.336;2023-07-29T02:53:56;18.10;95.40
3842;DHT22;1936;47.074;15.336;2023-07-29T02:55:59;18.30;95.10
3842;DHT22;1936;47.074;15.336;2023-07-29T02:58:03;18.30;95.10
3842;DHT22;1936;47.074;15.336;2023-07-29T03:00:07;18.30;95.40
3842;DHT22;1936;47.074;15.336;2023-07-29T03:02:11;18.30;95.20
3842;DHT22;1936;47.074;15.336;2023-07-29T03:04:16;18.40;95.10
3842;DHT22;1936;47.074;15.336;2023-07-29T03:06:20;18.40;95.40
3842;DHT22;1936;47.074;15.336;2023-07-29T03:08:23;18.30;95.70
3842;DHT22;1936;47.074;15.336;2023-07-29T03:10:26;18.20;95.90
3842;DHT22;1936;47.074;15.336;2023-07-29T03:12:30;18.30;95.70
3842;DHT22;1936;47.074;15.336;2023-07-29T03:14:33;18.40;95.60
3842;DHT22;1936;47.074;15.336;2023-07-29T03:16:36;18.40;95.90
3842;DHT22;1936;47.074;15.336;2023-07-29T03:18:41;18.50;95.50
3842;DHT22;1936;47.074;15.336;2023-07-29T03:20:45;18.50;95.40
3842;DHT22;1936;47.074;15.336;2023-07-29T03:22:49;18.50;95.80
3842;DHT22;1936;47.074;15.336;2023-07-29T03:24:52;18.60;95.40
3842;DHT22;1936;47.074;15.336;2023-07-29T03:26:56;18.60;95.50
3842;DHT22;1936;47.074;15.336;2023-07-29T03:28:59;18.60;95.10
3842;DHT22;1936;47.074;15.336;2023-07-29T03:31:03;18.50;95.30
3842;DHT22;1936;47.074;15.336;2023-07-29T03:33:07;18.50;95.50
3842;DHT22;1936;47.074;15.336;2023-07-29T03:35:10;18.60;95.20
3842;DHT22;1936;47.074;15.336;2023-07-29T03:37:15;18.70;95.10
3842;DHT22;1936;47.074;15.336;2023-07-29T03:39:18;18.70;94.80
3842;DHT22;1936;47.074;15.336;2023-07-29T03:41:22;18.60;95.20
3842;DHT22;1936;47.074;15.336;2023-07-29T03:43:25;18.60;95.50
3842;DHT22;1936;47.074;15.336;2023-07-29T03:45:29;18.60;95.50
3842;DHT22;1936;47.074;15.336;2023-07-29T03:47:32;18.70;95.40
3842;DHT22;1936;47.074;15.336;2023-07-29T03:49:35;18.80;95.00
3842;DHT22;1936;47.074;15.336;2023-07-29T03:51:38;18.90;94.70
3842;DHT22;1936;47.074;15.336;2023-07-29T03:53:43;18.70;94.90
3842;DHT22;1936;47.074;15.336;2023-07-29T03:55:46;18.80;95.20
3842;DHT22;1936;47.074;15.336;2023-07-29T03:57:52;18.90;94.90
3842;DHT22;1936;47.074;15.336;2023-07-29T03:59:55;18.80;95.20
3842;DHT22;1936;47.074;15.336;2023-07-29T04:01:58;18.80;95.50
3842;DHT22;1936;47.074;15.336;2023-07-29T04:04:02;19.00;94.90
3842;DHT22;1936;47.074;15.336;2023-07-29T04:06:06;19.00;94.70
3842;DHT22;1936;47.074;15.336;2023-07-29T04:08:09;18.90;94.90
3842;DHT22;1936;47.074;15.336;2023-07-29T04:10:14;19.00;95.10
3842;DHT22;1936;47.074;15.336;2023-07-29T04:12:17;19.00;95.00
3842;DHT22;1936;47.074;15.336;2023-07-29T04:14:23;19.00;94.90
3842;DHT22;1936;47.074;15.336;2023-07-29T04:16:26;19.20;94.80
3842;DHT22;1936;47.074;15.336;2023-07-29T04:18:30;19.10;94.70
3842;DHT22;1936;47.074;15.336;2023-07-29T04:20:34;19.10;94.90
3842;DHT22;1936;47.074;15.336;2023-07-29T04:22:37;19.10;95.00
3842;DHT22;1936;47.074;15.336;2023-07-29T04:24:41;19.10;95.00
3842;DHT22;1936;47.074;15.336;2023-07-29T04:26:46;19.20;95.00
3842;DHT22;1936;47.074;15.336;2023-07-29T04:28:49;19.10;94.90
3842;DHT22;1936;47.074;15.336;2023-07-29T04:30:53;19.20;95.00
3842;DHT22;1936;47.074;15.336;2023-07-29T04:32:55;19.20;95.10
3842;DHT22;1936;47.074;15.336;2023-07-29T04:34:59;19.30;95.00
3842;DHT22;1936;47.074;15.336;2023-07-29T04:37:02;19.40;94.80
3842;DHT22;1936;47.074;15.336;2023-07-29T04:39:05;19.40;94.90
3842;DHT22;1936;47.074;15.336;2023-07-29T04:41:09;19.30;95.00
3842;DHT22;1936;47.074;15.336;2023-07-29T04:43:14;19.30;95.40
3842;DHT22;1936;47.074;15.336;2023-07-29T04:45:18;19.20;95.60
3842;DHT22;1936;47.074;15.336;2023-07-29T04:47:20;19.50;95.10
3842;DHT22;1936;47.074;15.336;2023-07-29T04:49:25;19.60;95.00
3842;DHT22;1936;47.074;15.336;2023-07-29T04:51:29;19.90;94.60
3842;DHT22;1936;47.074;15.336;2023-07-29T04:53:33;20.00;94.30
3842;DHT22;1936;47.074;15.336;2023-07-29T04:55:38;20.00;94.00
3842;DHT22;1936;47.074;15.336;2023-07-29T04:57:40;20.10;94.00
3842;DHT22;1936;47.074;15.336;2023-07-29T04:59:45;20.10;93.70
3842;DHT22;1936;47.074;15.336;2023-07-29T05:01:49;20.10;93.80
3842;DHT22;1936;47.074;15.336;2023-07-29T05:03:56;20.30;93.50
3842;DHT22;1936;47.074;15.336;2023-07-29T05:06:00;20.20;93.60
3842;DHT22;1936;47.074;15.336;2023-07-29T05:08:04;20.40;93.60
3842;DHT22;1936;47.074;15.336;2023-07-29T05:10:07;20.20;94.00
3842;DHT22;1936;47.074;15.336;2023-07-29T05:12:11;20.30;94.00
3842;DHT22;1936;47.074;15.336;2023-07-29T05:14:15;20.20;93.90
3842;DHT22;1936;47.074;15.336;2023-07-29T05:16:20;20.20;94.00
3842;DHT22;1936;47.074;15.336;2023-07-29T05:18:24;20.30;94.00
3842;DHT22;1936;47.074;15.336;2023-07-29T05:20:27;20.40;93.80
3842;DHT22;1936;47.074;15.336;2023-07-29T05:22:31;20.50;93.60
3842;DHT22;1936;47.074;15.336;2023-07-29T05:24:34;20.60;93.10
3842;DHT22;1936;47.074;15.336;2023-07-29T05:26:37;20.60;92.80
3842;DHT22;1936;47.074;15.336;2023-07-29T05:28:40;20.40;92.00
3842;DHT22;1936;47.074;15.336;2023-07-29T05:30:44;20.30;92.00
3842;DHT22;1936;47.074;15.336;2023-07-29T05:32:49;20.30;92.60
3842;DHT22;1936;47.074;15.336;2023-07-29T05:34:52;20.30;92.70
3842;DHT22;1936;47.074;15.336;2023-07-29T05:36:56;20.50;92.10
3842;DHT22;1936;47.074;15.336;2023-07-29T05:39:00;20.60;91.80
3842;DHT22;1936;47.074;15.336;2023-07-29T05:41:04;20.50;91.20
3842;DHT22;1936;47.074;15.336;2023-07-29T05:43:07;20.70;91.00
3842;DHT22;1936;47.074;15.336;2023-07-29T05:45:11;20.60;90.60
3842;DHT22;1936;47.074;15.336;2023-07-29T05:47:14;20.70;90.80
3842;DHT22;1936;47.074;15.336;2023-07-29T05:49:19;20.80;89.40
3842;DHT22;1936;47.074;15.336;2023-07-29T05:51:23;20.70;89.50
3842;DHT22;1936;47.074;15.336;2023-07-29T05:53:26;20.80;88.90
3842;DHT22;1936;47.074;15.336;2023-07-29T05:55:30;20.70;88.00
3842;DHT22;1936;47.074;15.336;2023-07-29T05:57:33;20.60;88.70
3842;DHT22;1936;47.074;15.336;2023-07-29T05:59:37;20.50;89.70
3842;DHT22;1936;47.074;15.336;2023-07-29T06:01:40;20.70;89.00
3842;DHT22;1936;47.074;15.336;2023-07-29T06:03:43;20.70;88.80
3842;DHT22;1936;47.074;15.336;2023-07-29T06:05:48;20.90;90.20
3842;DHT22;1936;47.074;15.336;2023-07-29T06:07:55;21.20;90.30
3842;DHT22;1936;47.074;15.336;2023-07-29T06:09:59;21.30;89.80
3842;DHT22;1936;47.074;15.336;2023-07-29T06:12:02;21.50;90.00
3842;DHT22;1936;47.074;15.336;2023-07-29T06:14:06;21.60;90.00
3842;DHT22;1936;47.074;15.336;2023-07-29T06:16:09;21.70;90.50
3842;DHT22;1936;47.074;15.336;2023-07-29T06:18:14;21.80;90.90
3842;DHT22;1936;47.074;15.336;2023-07-29T06:20:17;22.10;90.90
3842;DHT22;1936;47.074;15.336;2023-07-29T06:22:22;22.40;90.40
3842;DHT22;1936;47.074;15.336;2023-07-29T06:24:25;22.90;88.70
3842;DHT22;1936;47.074;15.336;2023-07-29T06:26:29;23.20;87.00
3842;DHT22;1936;47.074;15.336;2023-07-29T06:28:32;23.60;85.90
3842;DHT22;1936;47.074;15.336;2023-07-29T06:30:36;23.80;82.60
3842;DHT22;1936;47.074;15.336;2023-07-29T06:32:39;24.20;83.50
3842;DHT22;1936;47.074;15.336;2023-07-29T06:34:43;24.30;83.10
3842;DHT22;1936;47.074;15.336;2023-07-29T06:36:47;24.40;82.10
3842;DHT22;1936;47.074;15.336;2023-07-29T06:38:52;24.30;78.00
3842;DHT22;1936;47.074;15.336;2023-07-29T06:40:55;24.40;78.00
3842;DHT22;1936;47.074;15.336;2023-07-29T06:42:59;24.60;76.50
3842;DHT22;1936;47.074;15.336;2023-07-29T06:45:04;24.90;76.50
3842;DHT22;1936;47.074;15.336;2023-07-29T06:47:08;24.70;73.90
3842;DHT22;1936;47.074;15.336;2023-07-29T06:49:11;24.90;74.20
3842;DHT22;1936;47.074;15.336;2023-07-29T06:51:15;25.40;75.00
3842;DHT22;1936;47.074;15.336;2023-07-29T06:53:18;26.70;69.70
3842;DHT22;1936;47.074;15.336;2023-07-29T06:55:27;28.40;67.20
3842;DHT22;1936;47.074;15.336;2023-07-29T06:57:31;29.50;58.30
3842;DHT22;1936;47.074;15.336;2023-07-29T06:59:33;29.70;56.80
3842;DHT22;1936;47.074;15.336;2023-07-29T07:01:37;29.50;56.50
3842;DHT22;1936;47.074;15.336;2023-07-29T07:03:40;29.40;55.00
3842;DHT22;1936;47.074;15.336;2023-07-29T07:05:44;28.70;56.40
3842;DHT22;1936;47.074;15.336;2023-07-29T07:07:47;29.60;58.30
3842;DHT22;1936;47.074;15.336;2023-07-29T07:09:51;30.10;52.80
3842;DHT22;1936;47.074;15.336;2023-07-29T07:11:56;29.40;53.50
3842;DHT22;1936;47.074;15.336;2023-07-29T07:13:59;30.00;54.90
3842;DHT22;1936;47.074;15.336;2023-07-29T07:16:06;31.90;55.30
3842;DHT22;1936;47.074;15.336;2023-07-29T07:18:09;33.30;47.80
3842;DHT22;1936;47.074;15.336;2023-07-29T07:20:12;34.30;47.10
3842;DHT22;1936;47.074;15.336;2023-07-29T07:22:16;34.00;42.30
3842;DHT22;1936;47.074;15.336;2023-07-29T07:24:18;33.20;43.50
3842;DHT22;1936;47.074;15.336;2023-07-29T07:26:22;33.50;43.40
3842;DHT22;1936;47.074;15.336;2023-07-29T07:28:27;34.60;45.10
3842;DHT22;1936;47.074;15.336;2023-07-29T07:30:31;35.90;41.00
3842;DHT22;1936;47.074;15.336;2023-07-29T07:32:34;35.80;38.60
3842;DHT22;1936;47.074;15.336;2023-07-29T07:34:38;34.60;40.10
3842;DHT22;1936;47.074;15.336;2023-07-29T07:36:43;34.70;43.50
3842;DHT22;1936;47.074;15.336;2023-07-29T07:38:47;35.00;40.50
3842;DHT22;1936;47.074;15.336;2023-07-29T07:40:54;34.60;38.40
3842;DHT22;1936;47.074;15.336;2023-07-29T07:43:00;36.10;37.00
3842;DHT22;1936;47.074;15.336;2023-07-29T07:45:05;36.90;36.80
3842;DHT22;1936;47.074;15.336;2023-07-29T07:47:11;35.60;35.10
3842;DHT22;1936;47.074;15.336;2023-07-29T07:49:14;36.30;34.80
3842;DHT22;1936;47.074;15.336;2023-07-29T07:51:18;36.40;34.00
3842;DHT22;1936;47.074;15.336;2023-07-29T07:53:21;36.40;36.40
3842;DHT22;1936;47.074;15.336;2023-07-29T07:55:25;37.70;33.20
3842;DHT22;1936;47.074;15.336;2023-07-29T07:57:28;38.30;35.60
3842;DHT22;1936;47.074;15.336;2023-07-29T07:59:32;38.80;31.40
3842;DHT22;1936;47.074;15.336;2023-07-29T08:01:37;37.60;32.10
3842;DHT22;1936;47.074;15.336;2023-07-29T08:03:41;39.50;33.90
3842;DHT22;1936;47.074;15.336;2023-07-29T08:05:44;40.90;32.50
3842;DHT22;1936;47.074;15.336;2023-07-29T08:07:48;40.00;30.00
3842;DHT22;1936;47.074;15.336;2023-07-29T08:09:51;40.30;30.00
3842;DHT22;1936;47.074;15.336;2023-07-29T08:11:55;40.70;30.30
3842;DHT22;1936;47.074;15.336;2023-07-29T08:13:59;41.00;29.90
3842;DHT22;1936;47.074;15.336;2023-07-29T08:16:02;41.10;31.30
3842;DHT22;1936;47.074;15.336;2023-07-29T08:18:06;41.60;27.80
3842;DHT22;1936;47.074;15.336;2023-07-29T08:22:14;40.40;30.10
3842;DHT22;1936;47.074;15.336;2023-07-29T08:24:19;41.20;31.70
3842;DHT22;1936;47.074;15.336;2023-07-29T08:26:22;41.90;27.00
3842;DHT22;1936;47.074;15.336;2023-07-29T08:28:31;42.30;30.20
3842;DHT22;1936;47.074;15.336;2023-07-29T08:30:34;42.00;27.90
3842;DHT22;1936;47.074;15.336;2023-07-29T08:32:38;42.20;27.10
3842;DHT22;1936;47.074;15.336;2023-07-29T08:34:48;41.30;26.60
3842;DHT22;1936;47.074;15.336;2023-07-29T08:36:51;41.70;26.70
3842;DHT22;1936;47.074;15.336;2023-07-29T08:38:55;41.10;27.80
3842;DHT22;1936;47.074;15.336;2023-07-29T08:43:29;40.80;29.40
3842;DHT22;1936;47.074;15.336;2023-07-29T08:45:38;41.00;32.90
3842;DHT22;1936;47.074;15.336;2023-07-29T08:47:41;41.80;29.30
3842;DHT22;1936;47.074;15.336;2023-07-29T08:49:46;42.80;33.20
3842;DHT22;1936;47.074;15.336;2023-07-29T08:51:55;43.90;31.10
3842;DHT22;1936;47.074;15.336;2023-07-29T08:56:06;43.60;25.30
3842;DHT22;1936;47.074;15.336;2023-07-29T08:58:11;44.10;28.10
3842;DHT22;1936;47.074;15.336;2023-07-29T09:00:15;44.00;27.40
3842;DHT22;1936;47.074;15.336;2023-07-29T09:02:22;43.70;28.40
3842;DHT22;1936;47.074;15.336;2023-07-29T09:06:31;41.90;28.60
3842;DHT22;1936;47.074;15.336;2023-07-29T09:08:36;42.00;28.90
3842;DHT22;1936;47.074;15.336;2023-07-29T09:10:40;43.00;28.30
3842;DHT22;1936;47.074;15.336;2023-07-29T09:12:44;43.40;27.60
3842;DHT22;1936;47.074;15.336;2023-07-29T09:14:47;43.60;28.20
3842;DHT22;1936;47.074;15.336;2023-07-29T09:16:54;42.90;27.20
3842;DHT22;1936;47.074;15.336;2023-07-29T09:19:01;42.70;27.40
3842;DHT22;1936;47.074;15.336;2023-07-29T09:21:05;42.90;28.00
3842;DHT22;1936;47.074;15.336;2023-07-29T09:23:10;42.30;28.60
3842;DHT22;1936;47.074;15.336;2023-07-29T09:25:15;43.10;27.80
3842;DHT22;1936;47.074;15.336;2023-07-29T09:27:25;43.00;26.10
3842;DHT22;1936;47.074;15.336;2023-07-29T09:29:29;43.50;29.30
3842;DHT22;1936;47.074;15.336;2023-07-29T09:31:34;43.50;27.70
3842;DHT22;1936;47.074;15.336;2023-07-29T09:33:37;42.60;28.00
3842;DHT22;1936;47.074;15.336;2023-07-29T09:35:42;43.60;27.10
3842;DHT22;1936;47.074;15.336;2023-07-29T09:37:45;44.20;27.40
3842;DHT22;1936;47.074;15.336;2023-07-29T09:39:50;44.50;29.00
3842;DHT22;1936;47.074;15.336;2023-07-29T09:41:55;42.90;29.00
3842;DHT22;1936;47.074;15.336;2023-07-29T09:43:59;42.90;29.00
3842;DHT22;1936;47.074;15.336;2023-07-29T09:46:04;43.20;31.60
3842;DHT22;1936;47.074;15.336;2023-07-29T09:48:09;44.30;30.50
3842;DHT22;1936;47.074;15.336;2023-07-29T09:50:13;43.80;26.80
3842;DHT22;1936;47.074;15.336;2023-07-29T09:52:17;44.30;26.00
3842;DHT22;1936;47.074;15.336;2023-07-29T09:54:21;44.00;29.20
3842;DHT22;1936;47.074;15.336;2023-07-29T09:56:25;43.70;26.00
3842;DHT22;1936;47.074;15.336;2023-07-29T09:58:30;44.10;29.90
3842;DHT22;1936;47.074;15.336;2023-07-29T10:00:37;43.30;27.70
3842;DHT22;1936;47.074;15.336;2023-07-29T10:02:43;42.50;27.80
3842;DHT22;1936;47.074;15.336;2023-07-29T10:04:47;43.40;29.30
3842;DHT22;1936;47.074;15.336;2023-07-29T10:06:50;43.40;29.90
3842;DHT22;1936;47.074;15.336;2023-07-29T10:08:55;43.00;25.90
3842;DHT22;1936;47.074;15.336;2023-07-29T10:11:00;42.70;28.60
3842;DHT22;1936;47.074;15.336;2023-07-29T10:13:05;43.20;29.70
3842;DHT22;1936;47.074;15.336;2023-07-29T10:15:11;42.40;26.00
3842;DHT22;1936;47.074;15.336;2023-07-29T10:17:15;42.10;29.20
3842;DHT22;1936;47.074;15.336;2023-07-29T10:19:22;42.70;27.10
3842;DHT22;1936;47.074;15.336;2023-07-29T10:21:26;42.70;28.00
3842;DHT22;1936;47.074;15.336;2023-07-29T10:23:38;42.10;27.50
3842;DHT22;1936;47.074;15.336;2023-07-29T10:25:50;41.90;25.90
3842;DHT22;1936;47.074;15.336;2023-07-29T10:28:03;41.70;26.90
3842;DHT22;1936;47.074;15.336;2023-07-29T10:30:11;42.00;29.70
3842;DHT22;1936;47.074;15.336;2023-07-29T10:32:16;41.70;28.80
3842;DHT22;1936;47.074;15.336;2023-07-29T10:34:20;41.20;27.80
3842;DHT22;1936;47.074;15.336;2023-07-29T10:36:25;41.10;29.40
3842;DHT22;1936;47.074;15.336;2023-07-29T10:38:29;41.20;29.30
3842;DHT22;1936;47.074;15.336;2023-07-29T10:40:46;41.20;28.20
3842;DHT22;1936;47.074;15.336;2023-07-29T10:43:00;41.20;28.70
3842;DHT22;1936;47.074;15.336;2023-07-29T10:45:20;41.30;27.40
3842;DHT22;1936;47.074;15.336;2023-07-29T10:47:24;41.40;27.40
3842;DHT22;1936;47.074;15.336;2023-07-29T10:51:35;39.80;33.40
3842;DHT22;1936;47.074;15.336;2023-07-29T10:53:39;39.60;31.80
3842;DHT22;1936;47.074;15.336;2023-07-29T10:55:44;40.10;32.90
3842;DHT22;1936;47.074;15.336;2023-07-29T10:57:47;40.80;35.80
3842;DHT22;1936;47.074;15.336;2023-07-29T10:59:55;40.50;30.00
3842;DHT22;1936;47.074;15.336;2023-07-29T11:02:00;41.30;29.70
3842;DHT22;1936;47.074;15.336;2023-07-29T11:04:24;41.30;28.10
3842;DHT22;1936;47.074;15.336;2023-07-29T11:06:29;39.90;29.50
3842;DHT22;1936;47.074;15.336;2023-07-29T11:08:32;40.10;32.80
3842;DHT22;1936;47.074;15.336;2023-07-29T11:10:43;40.00;34.70
3842;DHT22;1936;47.074;15.336;2023-07-29T11:12:46;40.70;29.90
3842;DHT22;1936;47.074;15.336;2023-07-29T11:14:52;40.30;31.40
3842;DHT22;1936;47.074;15.336;2023-07-29T11:16:55;41.10;34.90
3842;DHT22;1936;47.074;15.336;2023-07-29T11:19:01;40.80;36.00
3842;DHT22;1936;47.074;15.336;2023-07-29T11:21:04;40.20;34.00
3842;DHT22;1936;47.074;15.336;2023-07-29T11:23:09;40.10;33.60
3842;DHT22;1936;47.074;15.336;2023-07-29T11:25:13;39.90;34.10
3842;DHT22;1936;47.074;15.336;2023-07-29T11:27:17;40.10;36.10
3842;DHT22;1936;47.074;15.336;2023-07-29T11:29:20;39.30;36.30
3842;DHT22;1936;47.074;15.336;2023-07-29T11:31:39;39.10;36.00
3842;DHT22;1936;47.074;15.336;2023-07-29T11:33:43;39.70;35.10
3842;DHT22;1936;47.074;15.336;2023-07-29T11:35:48;39.90;33.30
3842;DHT22;1936;47.074;15.336;2023-07-29T11:37:54;39.80;37.50
3842;DHT22;1936;47.074;15.336;2023-07-29T11:39:58;40.50;35.90
3842;DHT22;1936;47.074;15.336;2023-07-29T11:42:02;40.50;35.70
3842;DHT22;1936;47.074;15.336;2023-07-29T11:44:09;39.80;34.00
3842;DHT22;1936;47.074;15.336;2023-07-29T11:46:13;40.20;34.60
3842;DHT22;1936;47.074;15.336;2023-07-29T11:48:16;39.90;34.60
3842;DHT22;1936;47.074;15.336;2023-07-29T11:50:20;39.40;37.20
3842;DHT22;1936;47.074;15.336;2023-07-29T11:52:25;38.90;38.70
3842;DHT22;1936;47.074;15.336;2023-07-29T11:54:28;38.70;37.30
3842;DHT22;1936;47.074;15.336;2023-07-29T11:56:32;38.90;35.60
3842;DHT22;1936;47.074;15.336;2023-07-29T11:58:36;38.90;35.30
3842;DHT22;1936;47.074;15.336;2023-07-29T12:00:40;38.20;37.40
3842;DHT22;1936;47.074;15.336;2023-07-29T12:02:45;38.30;38.40
3842;DHT22;1936;47.074;15.336;2023-07-29T12:04:49;38.50;33.40
3842;DHT22;1936;47.074;15.336;2023-07-29T12:06:52;37.70;39.30
3842;DHT22;1936;47.074;15.336;2023-07-29T12:08:57;38.20;36.30
3842;DHT22;1936;47.074;15.336;2023-07-29T12:11:00;38.00;38.80
3842;DHT22;1936;47.074;15.336;2023-07-29T12:13:04;38.00;38.00
3842;DHT22;1936;47.074;15.336;2023-07-29T12:15:08;38.30;38.20
3842;DHT22;1936;47.074;15.336;2023-07-29T12:17:12;37.20;38.00
3842;DHT22;1936;47.074;15.336;2023-07-29T12:19:16;36.50;39.90
3842;DHT22;1936;47.074;15.336;2023-07-29T12:21:20;36.20;39.70
3842;DHT22;1936;47.074;15.336;2023-07-29T12:23:24;35.90;40.10
3842;DHT22;1936;47.074;15.336;2023-07-29T12:25:30;35.70;39.20
3842;DHT22;1936;47.074;15.336;2023-07-29T12:27:33;35.40;40.70
3842;DHT22;1936;47.074;15.336;2023-07-29T12:29:40;34.80;44.30
3842;DHT22;1936;47.074;15.336;2023-07-29T12:31:44;35.50;39.40
3842;DHT22;1936;47.074;15.336;2023-07-29T12:33:48;36.00;42.60
3842;DHT22;1936;47.074;15.336;2023-07-29T12:35:51;36.30;39.30
3842;DHT22;1936;47.074;15.336;2023-07-29T12:38:00;35.90;38.30
3842;DHT22;1936;47.074;15.336;2023-07-29T12:40:04;35.90;39.40
3842;DHT22;1936;47.074;15.336;2023-07-29T12:42:09;35.80;39.50
3842;DHT22;1936;47.074;15.336;2023-07-29T12:44:12;35.40;40.70
3842;DHT22;1936;47.074;15.336;2023-07-29T12:46:17;35.30;41.70
3842;DHT22;1936;47.074;15.336;2023-07-29T12:48:21;34.90;40.30
3842;DHT22;1936;47.074;15.336;2023-07-29T12:50:24;34.60;41.30
3842;DHT22;1936;47.074;15.336;2023-07-29T12:52:28;34.00;40.30
3842;DHT22;1936;47.074;15.336;2023-07-29T12:54:32;33.80;43.00
3842;DHT22;1936;47.074;15.336;2023-07-29T12:56:36;33.60;45.70
3842;DHT22;1936;47.074;15.336;2023-07-29T12:58:41;33.50;46.60
3842;DHT22;1936;47.074;15.336;2023-07-29T13:00:44;33.00;49.00
3842;DHT22;1936;47.074;15.336;2023-07-29T13:02:48;32.50;49.40
3842;DHT22;1936;47.074;15.336;2023-07-29T13:04:52;32.20;48.00
3842;DHT22;1936;47.074;15.336;2023-07-29T13:06:55;32.10;50.00
3842;DHT22;1936;47.074;15.336;2023-07-29T13:09:01;31.40;52.70
3842;DHT22;1936;47.074;15.336;2023-07-29T13:11:05;31.00;53.20
3842;DHT22;1936;47.074;15.336;2023-07-29T13:13:08;30.50;54.60
3842;DHT22;1936;47.074;15.336;2023-07-29T13:15:13;31.00;54.50
3842;DHT22;1936;47.074;15.336;2023-07-29T13:17:16;30.90;53.50
3842;DHT22;1936;47.074;15.336;2023-07-29T13:19:20;31.30;52.80
3842;DHT22;1936;47.074;15.336;2023-07-29T13:21:23;31.10;47.60
3842;DHT22;1936;47.074;15.336;2023-07-29T13:23:27;31.00;50.40
3842;DHT22;1936;47.074;15.336;2023-07-29T13:25:31;30.90;50.40
3842;DHT22;1936;47.074;15.336;2023-07-29T13:27:35;31.10;51.40
3842;DHT22;1936;47.074;15.336;2023-07-29T13:29:39;31.70;51.50